Time;durP1;ratioP1;P1;durP2;ratioP2;P2;SDS_P1;SDS_P2;PMS_P1;PMS_P2;Temp;Humidity;BMP_temperature;BMP_pressure;BME280_temperature;BME280_humidity;BME280_pressure;Samples;Min_cycle;Max_cycle;Signal;HPM_P1;HPM_P2
2022/06/14 00:01:04;;;;;;;16.98;15.23;;;16.50;99.90;16.50;98129.00;;;;4979799;28;87016;-58
2022/06/14 00:03:41;;;;;;;19.08;16.48;;;16.50;99.90;16.60;98136.00;;;;4979816;28;88231;-58
2022/06/14 00:06:22;;;;;;;19.30;16.98;;;16.50;99.90;16.60;98140.00;;;;4980675;28;86946;-58
2022/06/14 00:08:48;;;;;;;22.77;17.02;;;16.50;99.90;16.50;98141.00;;;;4981486;28;87523;-58
2022/06/14 00:11:30;;;;;;;21.75;15.75;;;16.50;99.90;16.40;98135.00;;;;4980616;28;87335;-58
2022/06/14 00:13:58;;;;;;;16.60;14.88;;;16.40;99.90;16.30;98131.00;;;;4981737;28;87014;-58
2022/06/14 00:16:26;;;;;;;23.52;16.30;;;16.40;99.90;16.30;98140.00;;;;4964055;28;87389;-58
2022/06/14 00:18:53;;;;;;;17.85;15.75;;;16.30;99.90;16.30;98131.00;;;;4981177;28;88648;-58
2022/06/14 00:21:19;;;;;;;20.92;17.48;;;16.30;99.90;16.30;98132.00;;;;4981569;28;87142;-58
2022/06/14 00:23:46;;;;;;;27.67;17.40;;;16.30;99.90;16.20;98129.00;;;;4980269;28;88219;-58
2022/06/14 00:26:12;;;;;;;19.20;16.67;;;16.30;99.90;16.20;98130.00;;;;4981467;28;86941;-58
2022/06/14 00:28:40;;;;;;;21.02;18.88;;;16.40;99.90;16.40;98122.00;;;;4980648;28;88792;-58
2022/06/14 00:31:10;;;;;;;19.45;15.90;;;16.40;99.90;16.40;98134.00;;;;4980975;28;89589;-58
2022/06/14 00:33:37;;;;;;;18.10;16.20;;;16.40;99.90;16.40;98122.00;;;;4981035;28;87032;-58
2022/06/14 00:36:08;;;;;;;20.63;16.60;;;16.40;99.90;16.30;98125.00;;;;4981189;28;87544;-58
2022/06/14 00:38:37;;;;;;;18.33;16.10;;;16.40;99.90;16.40;98124.00;;;;4980950;28;87468;-58
2022/06/14 00:41:05;;;;;;;20.75;18.65;;;16.40;99.90;16.60;98119.00;;;;4964883;28;87636;-58
2022/06/14 00:43:32;;;;;;;18.92;16.92;;;16.60;99.90;16.70;98126.00;;;;4979919;28;87776;-58
2022/06/14 00:46:27;;;;;;;21.75;16.45;;;16.60;99.90;16.70;98114.00;;;;4980241;28;87192;-57
2022/06/14 00:49:06;;;;;;;19.17;17.15;;;16.60;99.90;16.70;98105.00;;;;4963150;28;89814;-58
2022/06/14 00:51:42;;;;;;;18.92;16.92;;;16.70;99.90;16.70;98117.00;;;;4963677;28;87420;-58
2022/06/14 00:54:27;;;;;;;21.63;17.63;;;16.70;99.90;16.70;98116.00;;;;4963249;28;88114;-58
2022/06/14 00:57:00;;;;;;;21.73;16.63;;;16.70;99.90;16.80;98119.00;;;;4963825;28;86916;-58
2022/06/14 00:59:42;;;;;;;18.75;16.90;;;16.70;99.90;16.90;98116.00;;;;4963344;28;87860;-58
2022/06/14 01:02:25;;;;;;;21.77;17.55;;;16.80;99.90;16.90;98120.00;;;;4972347;28;87329;-58
2022/06/14 01:04:52;;;;;;;22.15;18.17;;;16.80;99.90;17.00;98117.00;;;;4983818;28;87073;-58
2022/06/14 01:07:31;;;;;;;19.00;17.00;;;16.90;99.90;17.00;98126.00;;;;4968281;28;88021;-58
2022/06/14 01:10:05;;;;;;;20.95;17.83;;;16.90;99.90;17.00;98112.00;;;;4981536;28;87511;-58
2022/06/14 01:12:39;;;;;;;25.52;17.33;;;16.90;99.90;17.00;98128.00;;;;4984233;28;87510;-59
2022/06/14 01:15:12;;;;;;;20.30;17.35;;;16.90;99.90;17.10;98125.00;;;;4967159;28;86963;-58
2022/06/14 01:17:47;;;;;;;19.35;17.00;;;17.00;99.90;17.10;98119.00;;;;4984226;28;86930;-59
2022/06/14 01:20:18;;;;;;;20.63;16.27;;;17.00;99.90;17.10;98124.00;;;;4966571;28;88693;-59
2022/06/14 01:22:45;;;;;;;18.45;16.05;;;17.00;99.90;17.00;98118.00;;;;4983989;28;88538;-58
2022/06/14 01:25:12;;;;;;;18.85;15.55;;;17.00;99.90;17.00;98116.00;;;;4968768;28;86950;-58
2022/06/14 01:27:40;;;;;;;18.00;15.02;;;16.90;99.90;16.90;98127.00;;;;4982907;28;87420;-58
2022/06/14 01:30:14;;;;;;;18.05;16.15;;;16.90;99.90;16.90;98128.00;;;;4966576;28;88748;-58
2022/06/14 01:33:11;;;;;;;17.55;15.52;;;16.90;99.90;17.00;98122.00;;;;4966746;28;87626;-58
2022/06/14 01:35:41;;;;;;;20.42;15.80;;;16.90;99.90;17.00;98126.00;;;;4966194;28;87390;-58
2022/06/14 01:38:14;;;;;;;20.73;17.15;;;16.90;99.90;17.00;98126.00;;;;4969095;28;86276;-58
2022/06/14 01:41:23;;;;;;;19.13;17.10;;;16.90;99.90;17.00;98131.00;;;;4965670;28;87380;-58
2022/06/14 01:44:04;;;;;;;18.60;16.00;;;16.90;99.90;16.90;98144.00;;;;4964347;28;88456;-57
2022/06/14 01:47:02;;;;;;;22.20;16.60;;;16.80;99.90;17.00;98131.00;;;;4979895;28;87982;-58
2022/06/14 01:52:50;;;;;;;21.42;16.92;;;16.90;99.90;17.10;98134.00;;;;4983210;28;87019;-58
2022/06/14 01:55:58;;;;;;;18.58;16.63;;;17.00;99.90;17.10;98129.00;;;;4982104;28;87462;-58
2022/06/14 01:58:42;;;;;;;25.30;22.65;;;17.00;99.90;17.20;98138.00;;;;4981195;28;86997;-58
2022/06/14 02:01:35;;;;;;;19.95;15.52;;;17.10;99.90;17.30;98141.00;;;;4983198;28;87305;-58
2022/06/14 02:04:42;;;;;;;16.63;14.32;;;17.20;99.90;17.40;98136.00;;;;4962664;28;86902;-58
2022/06/14 02:07:35;;;;;;;21.55;13.90;;;17.20;99.90;17.50;98139.00;;;;4983039;28;87351;-58
2022/06/14 02:10:13;;;;;;;18.63;16.63;;;17.40;99.90;17.80;98133.00;;;;4983172;28;87037;-58
2022/06/14 02:13:11;;;;;;;14.07;12.63;;;17.70;99.90;18.20;98141.00;;;;4981999;28;87739;-58
2022/06/14 02:15:44;;;;;;;16.48;14.68;;;17.90;99.90;18.30;98134.00;;;;4965198;28;88802;-58
2022/06/14 02:18:30;;;;;;;19.10;17.05;;;18.10;99.90;18.40;98140.00;;;;4983015;28;88406;-58
2022/06/14 02:21:17;;;;;;;15.27;13.13;;;18.20;99.90;18.50;98132.00;;;;4983237;28;87065;-58
2022/06/14 02:24:07;;;;;;;13.85;12.45;;;18.30;99.90;18.70;98136.00;;;;4965791;28;87111;-58
2022/06/14 02:26:50;;;;;;;13.75;10.50;;;18.50;99.90;19.00;98136.00;;;;4983067;28;88126;-60
2022/06/14 02:29:30;;;;;;;11.95;10.65;;;18.80;99.90;19.50;98131.00;;;;4965836;28;87553;-58
2022/06/14 02:32:03;;;;;;;12.85;11.27;;;19.20;99.90;19.80;98139.00;;;;4966119;28;87042;-59
2022/06/14 02:34:53;;;;;;;12.57;10.93;;;19.50;99.90;19.90;98141.00;;;;4966171;28;86210;-60
2022/06/14 02:37:37;;;;;;;17.65;11.98;;;19.70;99.90;19.90;98137.00;;;;4960979;28;87717;-57
2022/06/14 02:40:39;;;;;;;14.07;12.57;;;19.80;99.90;19.90;98135.00;;;;4998976;28;87923;-60
2022/06/14 02:43:20;;;;;;;16.33;13.00;;;19.70;99.90;19.90;98130.00;;;;4955845;28;88188;-60
2022/06/14 02:45:59;;;;;;;18.20;10.98;;;19.70;99.90;19.80;98134.00;;;;4996888;28;87053;-58
2022/06/14 02:48:41;;;;;;;14.88;12.23;;;19.70;99.90;19.70;98135.00;;;;4981450;28;89182;-60
2022/06/14 02:51:27;;;;;;;21.77;12.18;;;19.50;99.90;19.80;98128.00;;;;4964770;28;87651;-57
2022/06/14 02:54:03;;;;;;;24.75;11.65;;;19.60;99.90;19.90;98137.00;;;;4965076;28;87060;-60
2022/06/14 02:56:39;;;;;;;19.20;14.95;;;19.70;99.90;20.00;98121.00;;;;4982828;28;87174;-57
2022/06/14 02:59:48;;;;;;;23.13;13.70;;;19.90;99.90;20.50;98127.00;;;;4964129;28;88907;-60
2022/06/14 03:02:47;;;;;;;18.88;12.13;;;20.20;99.90;21.00;98126.00;;;;4965393;28;88489;-60
2022/06/14 03:05:27;;;;;;;19.95;12.00;;;20.70;99.90;21.50;98121.00;;;;4967665;28;87350;-58
2022/06/14 03:08:08;;;;;;;18.20;11.77;;;21.10;99.90;22.20;98127.00;;;;4964989;28;87029;-58
2022/06/14 03:11:00;;;;;;;25.98;11.63;;;21.70;99.90;23.00;98129.00;;;;4980987;28;89003;-60
2022/06/14 03:13:40;;;;;;;27.88;11.45;;;22.30;99.90;23.60;98119.00;;;;4961710;28;88137;-60
2022/06/14 03:16:36;;;;;;;14.68;12.15;;;22.90;99.90;24.00;98122.00;;;;4979772;28;87551;-58
2022/06/14 03:19:25;;;;;;;23.58;12.23;;;23.30;99.90;24.00;98140.00;;;;4964631;28;87022;-58
2022/06/14 03:21:55;;;;;;;20.38;13.07;;;23.30;99.90;23.60;98132.00;;;;4977132;28;87511;-58
2022/06/14 03:24:43;;;;;;;18.13;14.05;;;23.00;99.90;23.20;98134.00;;;;4980590;28;87349;-58
2022/06/14 03:27:34;;;;;;;25.45;14.57;;;22.60;99.90;23.20;98131.00;;;;4980994;28;87690;-60
2022/06/14 03:30:30;;;;;;;20.80;14.23;;;22.60;99.90;23.00;98131.00;;;;4975898;28;86529;-58
2022/06/14 03:33:08;;;;;;;18.85;14.20;;;22.40;99.90;22.80;98131.00;;;;4964342;28;87581;-58
2022/06/14 03:35:41;;;;;;;23.65;13.10;;;22.20;99.90;23.10;98138.00;;;;4964603;28;87521;-58
2022/06/14 03:38:20;;;;;;;18.02;13.55;;;22.40;99.90;23.40;98138.00;;;;4981365;28;87919;-59
2022/06/14 03:40:47;;;;;;;16.67;13.27;;;22.80;99.90;23.70;98136.00;;;;4980638;28;87149;-58
2022/06/14 03:43:14;;;;;;;17.40;15.35;;;23.00;99.90;23.90;98132.00;;;;4963631;28;87529;-58
2022/06/14 03:45:59;;;;;;;18.05;15.60;;;23.20;99.90;24.00;98146.00;;;;4980512;28;87592;-58
2022/06/14 03:48:28;;;;;;;19.23;14.98;;;23.30;99.90;23.80;98142.00;;;;4964254;28;88046;-58
2022/06/14 03:51:20;;;;;;;22.42;16.20;;;23.30;99.90;23.50;98138.00;;;;4963935;28;87079;-58
2022/06/14 03:53:56;;;;;;;17.73;15.45;;;23.00;99.90;23.50;98133.00;;;;4977569;28;88544;-58
2022/06/14 03:56:30;;;;;;;17.17;15.40;;;23.00;99.90;23.70;98132.00;;;;4981290;28;88878;-58
2022/06/14 03:59:48;;;;;;;20.73;16.88;;;23.10;99.90;23.60;98130.00;;;;4980758;28;86940;-58
2022/06/14 04:05:43;;;;;;;19.83;16.33;;;22.80;99.90;23.80;98135.00;;;;4975388;28;88435;-58
2022/06/14 04:08:35;;;;;;;24.90;19.23;;;23.20;99.90;24.50;98138.00;;;;4980588;28;89590;-58
2022/06/14 04:12:00;;;;;;;18.42;15.35;;;23.80;99.90;25.20;98130.00;;;;4980701;28;87346;-58
2022/06/14 04:15:07;;;;;;;18.65;15.77;;;24.40;99.90;26.10;98126.00;;;;4961378;28;86980;-58
2022/06/14 04:17:54;;;;;;;23.95;15.70;;;25.30;99.90;26.50;98128.00;;;;4970328;28;87277;-59
2022/06/14 04:20:36;;;;;;;16.67;14.98;;;25.70;99.90;26.60;98127.00;;;;4980797;28;87754;-59
2022/06/14 04:23:26;;;;;;;19.45;15.65;;;25.80;99.90;26.90;98129.00;;;;4947521;28;87324;-58
2022/06/14 04:25:58;;;;;;;20.45;15.07;;;26.10;99.90;27.00;98125.00;;;;4981605;28;86981;-58
2022/06/14 04:29:19;;;;;;;16.98;14.88;;;26.10;99.90;26.80;98127.00;;;;4963569;28;87609;-58
2022/06/14 04:31:52;;;;;;;;;;;26.10;99.90;26.60;98134.00;;;;4959620;28;87837;-58
2022/06/14 04:34:32;;;;;;;16.15;14.52;;;26.00;99.90;26.30;98129.00;;;;4964494;28;88014;-58
2022/06/14 04:37:18;;;;;;;15.82;14.15;;;25.50;99.90;26.30;98126.00;;;;4963468;28;87166;-58
2022/06/14 04:40:11;;;;;;;20.65;13.52;;;25.60;99.90;26.80;98132.00;;;;4963054;28;89732;-58
2022/06/14 04:42:46;;;;;;;15.07;12.98;;;26.00;99.90;26.90;98123.00;;;;4957902;28;90252;-58
2022/06/14 04:45:43;;;;;;;16.48;13.45;;;26.10;99.90;26.90;98135.00;;;;4965741;28;86989;-58
2022/06/14 04:48:20;;;;;;;14.57;12.65;;;26.10;99.90;27.20;98119.00;;;;4962193;28;86972;-58
2022/06/14 04:51:17;;;;;;;13.57;12.05;;;26.40;99.90;27.60;98126.00;;;;4979687;28;87554;-58
2022/06/14 04:53:49;;;;;;;17.80;12.45;;;26.60;99.90;27.80;98120.00;;;;4971382;28;87407;-58
2022/06/14 04:56:22;;;;;;;14.90;12.57;;;26.90;99.90;27.80;98127.00;;;;4963638;28;87090;-58
2022/06/14 04:59:14;;;;;;;13.07;11.50;;;26.90;99.90;28.00;98135.00;;;;4962582;28;86973;-58
2022/06/14 05:01:50;;;;;;;13.10;10.88;;;27.10;99.90;28.30;98131.00;;;;4976755;28;88503;-58
2022/06/14 05:04:22;;;;;;;13.85;10.88;;;27.30;99.90;28.40;98131.00;;;;4980433;28;88200;-58
2022/06/14 05:07:10;;;;;;;16.30;10.80;;;27.50;99.90;28.30;98126.00;;;;4979903;28;87015;-58
2022/06/14 05:09:44;;;;;;;12.65;10.57;;;27.30;99.90;28.70;98125.00;;;;4977767;28;87608;-60
2022/06/14 05:12:27;;;;;;;12.45;10.60;;;27.70;99.90;28.90;98119.00;;;;4977905;28;87478;-58
2022/06/14 05:15:06;;;;;;;13.50;10.00;;;27.90;99.90;29.20;98128.00;;;;4979794;28;88452;-58
2022/06/14 05:17:45;;;;;;;12.50;9.32;;;28.10;99.90;29.20;98116.00;;;;4962898;28;87538;-58
2022/06/14 05:20:31;;;;;;;11.20;9.60;;;28.20;99.90;29.30;98124.00;;;;4981510;28;86244;-58
2022/06/14 05:23:26;;;;;;;10.90;8.50;;;28.20;99.90;29.30;98122.00;;;;4946212;28;88733;-58
2022/06/14 05:26:29;;;;;;;12.63;8.80;;;28.30;99.90;29.70;98124.00;;;;4962169;28;88459;-58
2022/06/14 05:29:00;;;;;;;10.35;9.35;;;28.60;99.90;29.70;98123.00;;;;4980384;28;88228;-58
2022/06/14 05:31:35;;;;;;;14.00;10.25;;;28.70;99.90;29.20;98128.00;;;;4980800;28;87247;-58
2022/06/14 05:34:17;;;;;;;11.82;9.43;;;28.30;99.90;29.40;98110.00;;;;4980263;28;88019;-58
2022/06/14 05:37:02;;;;;;;11.50;8.50;;;28.40;99.90;29.70;98115.00;;;;4980131;28;87481;-59
2022/06/14 05:39:43;;;;;;;9.77;8.77;;;28.80;99.90;29.80;98109.00;;;;4963556;28;86977;-58
2022/06/14 05:42:21;;;;;;;10.25;6.70;;;28.80;99.90;29.60;98107.00;;;;4961875;28;87265;-58
2022/06/14 05:44:54;;;;;;;9.27;6.53;;;28.50;99.90;29.60;98104.00;;;;4979464;28;88395;-58
2022/06/14 05:47:29;;;;;;;11.18;6.40;;;28.70;99.90;29.20;98115.00;;;;4958537;28;87276;-58
2022/06/14 05:50:01;;;;;;;7.97;5.90;;;28.30;99.90;28.70;98109.00;;;;4966423;28;87094;-58
2022/06/14 05:52:38;;;;;;;7.72;5.60;;;27.90;99.90;28.40;98113.00;;;;4982795;28;86971;-58
2022/06/14 05:55:05;;;;;;;8.82;6.28;;;27.50;99.90;28.20;98110.00;;;;4981876;28;88939;-58
2022/06/14 05:57:58;;;;;;;7.35;5.75;;;27.30;99.90;28.40;98111.00;;;;4983583;28;88850;-60
2022/06/14 06:00:39;;;;;;;7.03;5.40;;;27.50;99.90;28.70;98095.00;;;;4958771;28;87025;-58
2022/06/14 06:03:35;;;;;;;9.80;6.18;;;27.70;99.90;29.00;98101.00;;;;4973158;28;86973;-59
2022/06/14 06:06:12;;;;;;;8.75;5.18;;;28.00;99.90;28.60;98100.00;;;;4966102;28;87660;-58
2022/06/14 06:08:50;;;;;;;8.80;5.57;;;27.70;99.90;28.30;98104.00;;;;4966100;28;86998;-57
2022/06/14 06:11:53;;;;;;;9.57;5.35;;;27.40;99.90;28.10;98108.00;;;;4982573;28;87062;-59
2022/06/14 06:14:32;;;;;;;9.68;4.93;;;27.30;99.90;28.40;98108.00;;;;4983862;28;86275;-59
2022/06/14 06:17:14;;;;;;;9.23;4.90;;;27.50;99.90;28.60;98109.00;;;;4982114;28;87411;-59
2022/06/14 06:20:31;;;;;;;7.47;5.30;;;27.70;99.90;28.50;98107.00;;;;4965942;28;88508;-57
2022/06/14 06:23:24;;;;;;;8.55;5.15;;;27.50;99.90;28.30;98096.00;;;;4965359;28;87925;-60
2022/06/14 06:25:55;;;;;;;8.48;5.13;;;27.40;99.90;28.50;98100.00;;;;4969780;28;87210;-58
2022/06/14 06:28:28;;;;;;;6.38;4.30;;;27.60;99.90;28.40;98091.00;;;;4982852;28;87391;-58
2022/06/14 06:31:33;;;;;;;8.32;3.97;;;27.40;99.90;27.70;98092.00;;;;4981885;28;87542;-58
2022/06/14 06:34:02;;;;;;;8.07;4.70;;;26.90;99.90;27.40;98097.00;;;;4954031;28;87041;-58
2022/06/14 06:36:53;;;;;;;8.70;4.63;;;26.70;99.90;27.10;98092.00;;;;4963347;28;88032;-58
2022/06/14 06:39:48;;;;;;;9.00;5.30;;;26.60;99.90;26.80;98091.00;;;;4966901;28;88054;-58
2022/06/14 06:42:39;;;;;;;9.30;5.00;;;26.40;99.90;26.60;98094.00;;;;4964611;28;88509;-58
2022/06/14 06:45:35;;;;;;;7.00;4.68;;;26.20;99.90;26.70;98090.00;;;;4974132;28;87428;-58
2022/06/14 06:48:23;;;;;;;7.03;5.03;;;26.40;99.90;26.70;98094.00;;;;4981107;28;87552;-58
2022/06/14 06:50:58;;;;;;;10.80;5.60;;;26.30;99.90;26.50;98104.00;;;;4945119;28;88806;-59
2022/06/14 06:53:29;;;;;;;9.00;5.70;;;26.00;99.90;26.40;98096.00;;;;4981599;28;88807;-58
2022/06/14 06:56:16;;;;;;;7.22;5.20;;;25.90;99.90;26.40;98095.00;;;;4980536;28;88595;-58
2022/06/14 06:59:28;;;;;;;9.43;5.40;;;25.90;99.90;26.50;98103.00;;;;4981064;28;87198;-59
2022/06/14 07:01:59;;;;;;;8.50;5.55;;;25.90;99.90;26.30;98099.00;;;;4959854;28;88078;-58
2022/06/14 07:07:30;;;;;;;12.60;5.50;;;25.40;99.90;25.70;98089.00;;;;4982098;28;87517;-58
2022/06/14 07:10:18;;;;;;;7.90;5.47;;;25.30;99.90;26.20;98082.00;;;;4982819;28;86500;-58
2022/06/14 07:12:52;;;;;;;8.40;5.50;;;25.80;99.90;26.70;98084.00;;;;4981624;28;88671;-58
2022/06/14 07:15:44;;;;;;;8.40;5.15;;;26.10;99.90;26.50;98090.00;;;;4982048;28;87293;-58
2022/06/14 07:18:24;;;;;;;12.10;5.88;;;25.90;99.90;26.00;98083.00;;;;4964834;28;88125;-58
2022/06/14 07:21:17;;;;;;;10.70;5.63;;;25.40;99.90;25.50;98075.00;;;;4982426;28;87059;-58
2022/06/14 07:24:11;;;;;;;8.30;5.82;;;25.10;99.90;25.20;98095.00;;;;4981920;28;88565;-58
2022/06/14 07:26:56;;;;;;;7.38;5.60;;;24.70;99.90;24.90;98082.00;;;;4974403;28;87137;-59
2022/06/14 07:29:34;;;;;;;7.90;5.57;;;24.60;99.90;25.00;98085.00;;;;4970589;28;86877;-58
2022/06/14 07:32:17;;;;;;;9.02;5.72;;;24.70;99.90;25.30;98082.00;;;;4982391;28;86831;-58
2022/06/14 07:34:45;;;;;;;8.02;5.05;;;24.90;99.90;25.50;98080.00;;;;4964849;28;87635;-59
2022/06/14 07:37:36;;;;;;;7.55;5.43;;;25.10;99.90;25.50;98072.00;;;;4965520;28;87356;-59
2022/06/14 07:40:15;;;;;;;8.45;4.57;;;25.00;99.90;25.40;98080.00;;;;4965295;28;86935;-59
2022/06/14 07:42:56;;;;;;;11.10;6.50;;;25.00;99.90;25.20;98077.00;;;;4980791;28;87018;-58
2022/06/14 07:45:32;;;;;;;8.48;5.25;;;24.90;99.90;25.40;98077.00;;;;4979111;28;88696;-58
2022/06/14 07:48:34;;;;;;;8.77;4.65;;;25.10;99.90;25.60;98061.00;;;;4963299;28;88377;-58
2022/06/14 07:51:21;;;;;;;6.45;3.50;;;25.20;99.90;26.00;98058.00;;;;4980482;28;87051;-58
2022/06/14 07:54:16;;;;;;;5.47;3.20;;;25.60;99.90;26.10;98069.00;;;;4975582;28;87201;-59
2022/06/14 07:57:01;;;;;;;6.88;3.63;;;25.70;99.90;25.80;98071.00;;;;4948021;28;88163;-58
2022/06/14 07:59:42;;;;;;;5.55;3.67;;;25.30;99.90;25.50;98067.00;;;;4963645;28;87252;-58
2022/06/14 08:02:33;;;;;;;6.28;3.83;;;25.10;99.90;25.20;98057.00;;;;4982284;28;87103;-60
2022/06/14 08:05:17;;;;;;;8.10;4.78;;;24.90;99.90;25.10;98069.00;;;;4964664;28;86210;-59
2022/06/14 08:07:45;;;;;;;10.25;4.75;;;24.70;99.90;25.00;98054.00;;;;4981660;28;87997;-59
2022/06/14 08:10:19;;;;;;;10.23;4.40;;;24.70;99.90;25.20;98060.00;;;;4963002;28;87526;-58
2022/06/14 08:13:02;;;;;;;6.75;4.13;;;24.70;99.90;25.20;98060.00;;;;4980324;28;87863;-58
2022/06/14 08:15:47;;;;;;;5.00;3.90;;;24.70;99.90;25.10;98058.00;;;;4964302;28;86957;-58
2022/06/14 08:18:24;;;;;;;7.15;3.75;;;24.60;99.90;25.00;98063.00;;;;4964463;28;87759;-59
2022/06/14 08:21:02;;;;;;;9.90;4.43;;;24.50;99.90;24.90;98060.00;;;;4964326;28;87715;-58
2022/06/14 08:23:53;;;;;;;6.75;4.10;;;24.40;99.90;25.10;98055.00;;;;4981395;28;86911;-57
2022/06/14 08:26:36;;;;;;;5.72;3.72;;;24.70;99.90;25.50;98040.00;;;;4955051;28;86981;-58
2022/06/14 08:29:16;;;;;;;8.52;3.80;;;25.10;99.90;25.90;98041.00;;;;4980650;28;89126;-59
2022/06/14 08:32:07;;;;;;;8.15;4.47;;;25.50;99.90;26.00;98045.00;;;;4982192;28;87623;-58
2022/06/14 08:34:51;;;;;;;5.93;4.00;;;25.60;99.90;26.10;98046.00;;;;4962446;28;86878;-58
2022/06/14 08:37:32;;;;;;;6.25;4.15;;;25.80;99.90;26.30;98034.00;;;;4967136;28;86827;-58
2022/06/14 08:40:53;;;;;;;5.07;3.67;;;26.00;99.90;26.40;98039.00;;;;4980677;28;90010;-60
2022/06/14 08:43:34;;;;;;;6.97;4.10;;;26.10;99.90;26.40;98041.00;;;;4978718;28;88486;-58
2022/06/14 08:46:55;;;;;;;6.90;3.80;;;26.10;99.90;26.40;98035.00;;;;4963049;28;87109;-58
2022/06/14 08:49:55;;;;;;;5.13;3.70;;;26.10;99.90;26.30;98036.00;;;;4971168;28;87097;-58
2022/06/14 08:52:48;;;;;;;4.68;3.50;;;25.90;99.90;25.80;98027.00;;;;4977963;28;87742;-58
2022/06/14 08:55:39;;;;;;;5.82;3.90;;;25.50;99.90;26.00;98032.00;;;;4981107;28;87465;-59
2022/06/14 08:58:51;;;;;;;5.35;3.90;;;25.60;99.90;26.10;98040.00;;;;4981025;28;87462;-60
2022/06/14 09:02:07;;;;;;;8.88;3.78;;;25.70;99.90;25.80;98031.00;;;;4963679;28;86776;-59
2022/06/14 09:05:18;;;;;;;7.38;4.20;;;25.40;99.90;25.70;98028.00;;;;4913757;28;88031;-58
2022/06/14 09:08:12;;;;;;;8.13;3.78;;;25.30;99.90;25.90;98026.00;;;;4955270;28;87672;-61
2022/06/14 09:11:05;;;;;;;6.28;3.58;;;25.50;99.90;26.00;98017.00;;;;4980510;28;88035;-59
2022/06/14 09:14:28;;;;;;;6.30;3.42;;;25.60;99.90;26.20;98022.00;;;;4977712;28;87385;-59
2022/06/14 09:17:33;;;;;;;10.88;4.65;;;25.80;99.90;26.60;98013.00;;;;4980948;28;87718;-59
2022/06/14 09:20:08;;;;;;;4.72;3.40;;;26.20;99.90;26.50;98014.00;;;;4981084;28;87381;-60
2022/06/14 09:23:10;;;;;;;5.80;3.67;;;26.00;99.90;26.50;98006.00;;;;4984052;28;87000;-59
2022/06/14 09:26:13;;;;;;;7.15;3.63;;;26.10;99.90;26.40;97992.00;;;;4982720;28;86974;-61
2022/06/14 09:29:18;;;;;;;4.90;3.10;;;26.10;99.90;26.50;98003.00;;;;4966193;28;87555;-59
2022/06/14 09:33:09;;;;;;;4.82;3.20;;;26.10;99.90;26.50;98003.00;;;;4984953;28;87210;-59
2022/06/14 09:36:16;;;;;;;4.40;2.85;;;26.00;99.90;26.40;97992.00;;;;4950028;28;86949;-59
2022/06/14 09:39:26;;;;;;;5.32;3.22;;;26.00;99.90;26.50;97998.00;;;;4980739;28;87548;-59
2022/06/14 09:42:16;;;;;;;7.00;3.00;;;26.10;99.90;26.60;97992.00;;;;4982439;28;88582;-59
2022/06/14 09:45:10;;;;;;;6.17;3.90;;;26.10;99.90;26.50;97984.00;;;;4980475;28;88291;-59
2022/06/14 09:48:49;;;;;;;5.50;2.90;;;26.20;99.90;26.50;97986.00;;;;4981230;28;87043;-59
2022/06/14 09:52:11;;;;;;;5.68;2.80;;;26.10;99.90;26.60;97976.00;;;;4889922;28;88320;-59
2022/06/14 09:55:11;;;;;;;7.03;2.83;;;26.20;99.90;26.60;97972.00;;;;4982588;28;87568;-59
2022/06/14 09:58:06;;;;;;;2.72;2.42;;;26.30;99.90;26.70;97962.00;;;;4983218;28;87258;-59
2022/06/14 10:00:48;;;;;;;5.18;2.90;;;26.40;99.90;26.60;97956.00;;;;4971522;28;86958;-59
2022/06/14 10:03:39;;;;;;;8.02;2.95;;;26.30;99.90;26.40;97965.00;;;;4980224;28;86255;-59
2022/06/14 10:06:48;;;;;;;5.93;3.10;;;26.10;99.90;26.30;97955.00;;;;4983070;28;87665;-59
2022/06/14 10:09:26;;;;;;;6.72;3.05;;;26.10;99.90;26.30;97949.00;;;;4887681;28;87503;-59
2022/06/14 10:12:31;;;;;;;3.78;2.60;;;26.00;99.90;26.30;97944.00;;;;4959931;28;88044;-59
2022/06/14 10:15:13;;;;;;;9.45;3.60;;;26.00;99.90;26.50;97967.00;;;;4965951;28;86928;-59
2022/06/14 10:17:55;;;;;;;6.95;3.40;;;26.10;99.90;26.20;97953.00;;;;4982888;28;87812;-59
2022/06/14 10:20:39;;;;;;;4.95;3.45;;;25.80;99.90;26.10;97942.00;;;;4966449;28;86865;-59
2022/06/14 10:23:44;;;;;;;5.05;3.13;;;25.80;99.90;26.20;97948.00;;;;4983301;28;86892;-59
2022/06/14 10:30:19;;;;;;;3.08;2.53;;;25.90;99.90;26.30;97933.00;;;;4983266;28;87906;-60
2022/06/14 10:33:24;;;;;;;7.07;3.10;;;25.90;99.90;26.50;97942.00;;;;4892352;28;88817;-59
2022/06/14 10:36:40;;;;;;;3.85;2.60;;;26.10;99.90;26.70;97935.00;;;;4922533;28;87137;-59
2022/06/14 10:39:58;;;;;;;5.05;2.50;;;26.30;99.90;26.80;97930.00;;;;4968492;28;87259;-59
2022/06/14 10:42:58;;;;;;;4.70;2.83;;;26.40;99.90;26.90;97927.00;;;;4967136;28;89443;-59
2022/06/14 10:46:02;;;;;;;4.22;2.72;;;26.50;99.90;26.70;97930.00;;;;4973335;28;88327;-59
2022/06/14 10:48:30;;;;;;;7.85;2.95;;;26.40;99.90;26.60;97923.00;;;;4977608;28;87095;-60
2022/06/14 10:51:13;;;;;;;4.18;2.63;;;26.20;99.90;26.60;97934.00;;;;4982516;28;87640;-59
2022/06/14 10:53:50;;;;;;;4.35;2.38;;;26.20;99.90;26.60;97922.00;;;;4982442;28;87643;-59
2022/06/14 10:56:53;;;;;;;3.75;2.75;;;26.10;99.90;26.50;97915.00;;;;4979085;28;88575;-59
2022/06/14 11:00:02;;;;;;;7.50;2.90;;;26.10;99.90;26.40;97909.00;;;;4980164;28;87110;-59
2022/06/14 11:02:39;;;;;;;4.53;2.70;;;26.10;99.90;26.50;97907.00;;;;4983214;28;86336;-59
2022/06/14 11:05:44;;;;;;;4.78;3.20;;;26.10;99.90;26.10;97909.00;;;;4964660;28;89035;-59
2022/06/14 11:08:24;;;;;;;6.05;3.58;;;25.80;99.90;26.10;97895.00;;;;4934706;28;87514;-60
2022/06/14 11:11:19;;;;;;;4.05;2.65;;;25.80;99.90;26.30;97888.00;;;;4982068;28;87967;-60
2022/06/14 11:14:23;;;;;;;5.93;2.50;;;26.00;99.90;26.60;97905.00;;;;4981721;28;87008;-60
2022/06/14 11:17:24;;;;;;;5.30;3.17;;;26.20;99.90;26.70;97880.00;;;;4982168;28;87630;-60
2022/06/14 11:20:21;;;;;;;5.47;2.40;;;26.40;99.90;26.90;97887.00;;;;4945874;28;87655;-60
2022/06/14 11:23:39;;;;;;;3.65;2.40;;;26.50;99.90;26.80;97898.00;;;;4979172;28;86928;-60
2022/06/14 11:26:23;;;;;;;3.65;2.20;;;26.40;99.90;26.80;97881.00;;;;4945814;28;87535;-60
2022/06/14 11:29:05;;;;;;;4.70;2.50;;;26.40;99.90;26.90;97872.00;;;;4964901;28;87805;-60
2022/06/14 11:31:43;;;;;;;5.22;2.58;;;26.50;99.90;26.90;97878.00;;;;4965805;28;87564;-60
2022/06/14 11:34:37;;;;;;;5.47;2.90;;;26.40;99.90;26.80;97883.00;;;;4965177;28;87051;-60
2022/06/14 11:37:50;;;;;;;4.07;2.90;;;26.40;99.90;26.70;97888.00;;;;4981783;28;86959;-60
2022/06/14 11:40:24;;;;;;;4.03;2.67;;;26.30;99.90;26.60;97869.00;;;;4981501;28;88585;-59
2022/06/14 11:43:09;;;;;;;3.75;2.45;;;26.30;99.90;26.80;97866.00;;;;4979599;28;88272;-59
2022/06/14 11:45:48;;;;;;;5.45;2.40;;;26.40;99.90;26.90;97877.00;;;;4980802;28;86996;-59
2022/06/14 11:49:02;;;;;;;4.60;2.40;;;26.50;99.90;26.80;97885.00;;;;4980475;28;87318;-59
2022/06/14 11:51:40;;;;;;;4.20;2.72;;;26.40;99.90;26.70;97880.00;;;;4976182;28;88086;-59
2022/06/14 11:54:21;;;;;;;3.92;2.65;;;26.30;99.90;26.50;97882.00;;;;4976390;28;87007;-59
2022/06/14 11:56:59;;;;;;;7.53;2.92;;;26.10;99.90;26.50;97872.00;;;;4962092;28;86933;-58
2022/06/14 11:59:58;;;;;;;5.72;2.47;;;26.10;99.90;26.70;97866.00;;;;4981665;28;88236;-60
2022/06/14 12:03:06;;;;;;;3.05;2.55;;;26.30;99.90;26.80;97879.00;;;;4981606;28;87682;-59
2022/06/14 12:06:08;;;;;;;5.35;2.22;;;26.30;99.90;26.60;97878.00;;;;4980708;28;87278;-60
2022/06/14 12:08:57;;;;;;;4.85;2.35;;;26.10;99.90;26.30;97874.00;;;;4918600;28;88099;-59
2022/06/14 12:11:27;;;;;;;4.20;2.40;;;25.90;99.90;26.40;97871.00;;;;4963442;28;87612;-59
2022/06/14 12:14:46;;;;;;;10.82;2.70;;;26.00;99.90;26.40;97864.00;;;;4975939;28;87516;-60
2022/06/14 12:17:17;;;;;;;5.97;2.10;;;25.80;99.90;26.40;97864.00;;;;4977129;28;87415;-60
2022/06/14 12:19:53;;;;;;;7.88;2.38;;;25.90;99.90;26.40;97861.00;;;;4981500;28;87103;-60
2022/06/14 12:22:36;;;;;;;3.47;2.38;;;25.90;99.90;26.40;97855.00;;;;4964138;28;87314;-60
2022/06/14 12:29:15;;;;;;;6.80;2.72;;;26.00;99.90;26.70;97829.00;;;;4964613;28;88816;-60